sensor_id;sensor_type;location;lat;lon;timestamp;temperature;humidity
12123;DHT22;6125;59.628;17.852;2023-06-19T00:00:59;17.30;99.90
12123;DHT22;6125;59.628;17.852;2023-06-19T00:03:26;17.30;99.90
12123;DHT22;6125;59.628;17.852;2023-06-19T00:05:53;17.20;99.90
12123;DHT22;6125;59.628;17.852;2023-06-19T00:08:20;17.20;99.90
12123;DHT22;6125;59.628;17.852;2023-06-19T00:10:49;17.20;99.90
12123;DHT22;6125;59.628;17.852;2023-06-19T00:13:16;17.10;99.90
12123;DHT22;6125;59.628;17.852;2023-06-19T00:15:44;17.10;99.90
12123;DHT22;6125;59.628;17.852;2023-06-19T00:18:12;17.10;99.90
12123;DHT22;6125;59.628;17.852;2023-06-19T00:20:39;17.10;99.90
12123;DHT22;6125;59.628;17.852;2023-06-19T00:23:06;17.00;99.90
12123;DHT22;6125;59.628;17.852;2023-06-19T00:25:37;17.00;99.90
12123;DHT22;6125;59.628;17.852;2023-06-19T00:28:05;17.10;99.90
12123;DHT22;6125;59.628;17.852;2023-06-19T00:30:39;17.00;99.90
12123;DHT22;6125;59.628;17.852;2023-06-19T00:33:07;17.10;99.90
12123;DHT22;6125;59.628;17.852;2023-06-19T00:35:34;17.10;99.90
12123;DHT22;6125;59.628;17.852;2023-06-19T00:38:02;17.10;99.90
12123;DHT22;6125;59.628;17.852;2023-06-19T00:40:30;17.10;99.90
12123;DHT22;6125;59.628;17.852;2023-06-19T00:42:58;17.10;99.90
12123;DHT22;6125;59.628;17.852;2023-06-19T00:45:26;17.10;99.90
12123;DHT22;6125;59.628;17.852;2023-06-19T00:47:54;17.10;99.90
12123;DHT22;6125;59.628;17.852;2023-06-19T00:50:22;17.10;99.90
12123;DHT22;6125;59.628;17.852;2023-06-19T00:52:49;17.10;99.90
12123;DHT22;6125;59.628;17.852;2023-06-19T00:55:17;17.10;99.90
12123;DHT22;6125;59.628;17.852;2023-06-19T00:57:44;17.10;99.90
12123;DHT22;6125;59.628;17.852;2023-06-19T01:00:13;17.20;99.90
12123;DHT22;6125;59.628;17.852;2023-06-19T01:02:41;17.20;99.90
12123;DHT22;6125;59.628;17.852;2023-06-19T01:05:08;17.20;99.90
12123;DHT22;6125;59.628;17.852;2023-06-19T01:07:42;17.10;99.90
12123;DHT22;6125;59.628;17.852;2023-06-19T01:10:13;17.10;99.90
12123;DHT22;6125;59.628;17.852;2023-06-19T01:13:04;17.10;99.90
12123;DHT22;6125;59.628;17.852;2023-06-19T01:15:33;17.10;99.90
12123;DHT22;6125;59.628;17.852;2023-06-19T01:18:02;17.10;99.90
12123;DHT22;6125;59.628;17.852;2023-06-19T01:20:29;17.10;99.90
12123;DHT22;6125;59.628;17.852;2023-06-19T01:23:06;17.10;99.90
12123;DHT22;6125;59.628;17.852;2023-06-19T01:25:33;17.10;99.90
12123;DHT22;6125;59.628;17.852;2023-06-19T01:28:01;17.10;99.90
12123;DHT22;6125;59.628;17.852;2023-06-19T01:30:29;17.10;99.90
12123;DHT22;6125;59.628;17.852;2023-06-19T01:32:59;17.10;99.90
12123;DHT22;6125;59.628;17.852;2023-06-19T01:35:34;17.10;99.90
12123;DHT22;6125;59.628;17.852;2023-06-19T01:38:03;17.10;99.90
12123;DHT22;6125;59.628;17.852;2023-06-19T01:40:31;17.10;99.90
12123;DHT22;6125;59.628;17.852;2023-06-19T01:43:00;17.10;99.90
12123;DHT22;6125;59.628;17.852;2023-06-19T01:45:28;17.10;99.90
12123;DHT22;6125;59.628;17.852;2023-06-19T01:47:56;17.10;99.90
12123;DHT22;6125;59.628;17.852;2023-06-19T01:50:24;17.10;99.90
12123;DHT22;6125;59.628;17.852;2023-06-19T01:52:51;17.20;99.90
12123;DHT22;6125;59.628;17.852;2023-06-19T01:55:20;17.20;99.90
12123;DHT22;6125;59.628;17.852;2023-06-19T01:57:47;17.20;99.90
12123;DHT22;6125;59.628;17.852;2023-06-19T02:00:14;17.20;99.90
12123;DHT22;6125;59.628;17.852;2023-06-19T02:02:42;17.20;99.90
12123;DHT22;6125;59.628;17.852;2023-06-19T02:05:09;17.20;99.90
12123;DHT22;6125;59.628;17.852;2023-06-19T02:07:36;17.30;99.90
12123;DHT22;6125;59.628;17.852;2023-06-19T02:10:04;17.30;99.90
12123;DHT22;6125;59.628;17.852;2023-06-19T02:12:32;17.20;99.90
12123;DHT22;6125;59.628;17.852;2023-06-19T02:15:00;17.20;99.90
12123;DHT22;6125;59.628;17.852;2023-06-19T02:17:27;17.20;99.90
12123;DHT22;6125;59.628;17.852;2023-06-19T02:19:54;17.20;99.90
12123;DHT22;6125;59.628;17.852;2023-06-19T02:22:21;17.20;99.90
12123;DHT22;6125;59.628;17.852;2023-06-19T02:24:48;17.20;99.90
12123;DHT22;6125;59.628;17.852;2023-06-19T02:27:15;17.20;99.90
12123;DHT22;6125;59.628;17.852;2023-06-19T02:29:44;17.20;99.90
12123;DHT22;6125;59.628;17.852;2023-06-19T02:32:11;17.20;99.90
12123;DHT22;6125;59.628;17.852;2023-06-19T02:34:38;17.20;99.90
12123;DHT22;6125;59.628;17.852;2023-06-19T02:37:05;17.20;99.90
12123;DHT22;6125;59.628;17.852;2023-06-19T02:39:33;17.20;99.90
12123;DHT22;6125;59.628;17.852;2023-06-19T02:42:00;17.20;99.90
12123;DHT22;6125;59.628;17.852;2023-06-19T02:44:27;17.30;99.90
12123;DHT22;6125;59.628;17.852;2023-06-19T02:46:56;17.30;99.90
12123;DHT22;6125;59.628;17.852;2023-06-19T02:49:23;17.30;99.90
12123;DHT22;6125;59.628;17.852;2023-06-19T02:51:50;17.30;99.90
12123;DHT22;6125;59.628;17.852;2023-06-19T02:54:17;17.30;99.90
12123;DHT22;6125;59.628;17.852;2023-06-19T02:56:44;17.30;99.90
12123;DHT22;6125;59.628;17.852;2023-06-19T02:59:11;17.30;99.90
12123;DHT22;6125;59.628;17.852;2023-06-19T03:01:38;17.40;99.90
12123;DHT22;6125;59.628;17.852;2023-06-19T03:04:06;17.30;99.90
12123;DHT22;6125;59.628;17.852;2023-06-19T03:06:33;17.30;99.90
12123;DHT22;6125;59.628;17.852;2023-06-19T03:09:05;17.20;99.90
12123;DHT22;6125;59.628;17.852;2023-06-19T03:11:38;17.20;99.90
12123;DHT22;6125;59.628;17.852;2023-06-19T03:14:05;17.30;99.90
12123;DHT22;6125;59.628;17.852;2023-06-19T03:16:33;17.20;99.90
12123;DHT22;6125;59.628;17.852;2023-06-19T03:19:00;17.30;99.90
12123;DHT22;6125;59.628;17.852;2023-06-19T03:21:29;17.20;99.90
12123;DHT22;6125;59.628;17.852;2023-06-19T03:23:56;17.20;99.90
12123;DHT22;6125;59.628;17.852;2023-06-19T03:26:23;17.20;99.90
12123;DHT22;6125;59.628;17.852;2023-06-19T03:28:51;17.20;99.90
12123;DHT22;6125;59.628;17.852;2023-06-19T03:31:18;17.20;99.90
12123;DHT22;6125;59.628;17.852;2023-06-19T03:33:45;17.20;99.90
12123;DHT22;6125;59.628;17.852;2023-06-19T03:36:12;17.30;99.90
12123;DHT22;6125;59.628;17.852;2023-06-19T03:38:41;17.30;99.90
12123;DHT22;6125;59.628;17.852;2023-06-19T03:41:08;17.40;99.90
12123;DHT22;6125;59.628;17.852;2023-06-19T03:43:35;17.40;99.90
12123;DHT22;6125;59.628;17.852;2023-06-19T03:46:02;17.40;99.90
12123;DHT22;6125;59.628;17.852;2023-06-19T03:48:29;17.40;99.90
12123;DHT22;6125;59.628;17.852;2023-06-19T03:50:56;17.40;99.90
12123;DHT22;6125;59.628;17.852;2023-06-19T03:53:23;17.50;99.90
12123;DHT22;6125;59.628;17.852;2023-06-19T03:55:52;17.50;99.90
12123;DHT22;6125;59.628;17.852;2023-06-19T03:58:19;17.60;99.90
12123;DHT22;6125;59.628;17.852;2023-06-19T04:00:46;17.60;99.90
12123;DHT22;6125;59.628;17.852;2023-06-19T04:03:13;17.60;99.90
12123;DHT22;6125;59.628;17.852;2023-06-19T04:05:40;17.60;99.90
12123;DHT22;6125;59.628;17.852;2023-06-19T04:08:07;17.60;99.90
12123;DHT22;6125;59.628;17.852;2023-06-19T04:10:34;17.70;99.90
12123;DHT22;6125;59.628;17.852;2023-06-19T04:13:03;17.70;99.90
12123;DHT22;6125;59.628;17.852;2023-06-19T04:15:32;17.70;99.90
12123;DHT22;6125;59.628;17.852;2023-06-19T04:18:01;17.80;99.90
12123;DHT22;6125;59.628;17.852;2023-06-19T04:20:28;17.80;99.90
12123;DHT22;6125;59.628;17.852;2023-06-19T04:22:55;17.90;99.90
12123;DHT22;6125;59.628;17.852;2023-06-19T04:25:23;17.90;99.90
12123;DHT22;6125;59.628;17.852;2023-06-19T04:27:50;17.90;99.90
12123;DHT22;6125;59.628;17.852;2023-06-19T04:30:18;18.00;99.90
12123;DHT22;6125;59.628;17.852;2023-06-19T04:32:46;18.00;99.90
12123;DHT22;6125;59.628;17.852;2023-06-19T04:35:13;18.00;99.90
12123;DHT22;6125;59.628;17.852;2023-06-19T04:37:40;18.10;99.90
12123;DHT22;6125;59.628;17.852;2023-06-19T04:40:08;18.10;99.90
12123;DHT22;6125;59.628;17.852;2023-06-19T04:42:36;18.20;99.90
12123;DHT22;6125;59.628;17.852;2023-06-19T04:45:05;18.30;99.90
12123;DHT22;6125;59.628;17.852;2023-06-19T04:47:34;18.40;99.90
12123;DHT22;6125;59.628;17.852;2023-06-19T04:50:01;18.50;99.90
12123;DHT22;6125;59.628;17.852;2023-06-19T04:52:28;18.60;99.90
12123;DHT22;6125;59.628;17.852;2023-06-19T04:54:56;18.70;99.90
12123;DHT22;6125;59.628;17.852;2023-06-19T04:57:23;18.80;99.90
12123;DHT22;6125;59.628;17.852;2023-06-19T04:59:50;18.80;99.90
12123;DHT22;6125;59.628;17.852;2023-06-19T05:02:17;19.00;99.90
12123;DHT22;6125;59.628;17.852;2023-06-19T05:04:46;19.10;99.90
12123;DHT22;6125;59.628;17.852;2023-06-19T05:07:13;19.20;99.90
12123;DHT22;6125;59.628;17.852;2023-06-19T05:09:41;19.20;99.90
12123;DHT22;6125;59.628;17.852;2023-06-19T05:12:09;19.20;99.90
12123;DHT22;6125;59.628;17.852;2023-06-19T05:14:36;19.10;99.90
12123;DHT22;6125;59.628;17.852;2023-06-19T05:17:04;19.20;99.90
12123;DHT22;6125;59.628;17.852;2023-06-19T05:19:31;19.10;99.90
12123;DHT22;6125;59.628;17.852;2023-06-19T05:22:00;19.00;99.90
12123;DHT22;6125;59.628;17.852;2023-06-19T05:24:27;18.90;99.90
12123;DHT22;6125;59.628;17.852;2023-06-19T05:26:54;18.90;99.90
12123;DHT22;6125;59.628;17.852;2023-06-19T05:29:21;18.90;99.90
12123;DHT22;6125;59.628;17.852;2023-06-19T05:31:48;18.90;99.90
12123;DHT22;6125;59.628;17.852;2023-06-19T05:34:15;18.90;99.90
12123;DHT22;6125;59.628;17.852;2023-06-19T05:36:42;19.00;99.90
12123;DHT22;6125;59.628;17.852;2023-06-19T05:39:14;19.00;99.90
12123;DHT22;6125;59.628;17.852;2023-06-19T05:41:41;19.00;99.90
12123;DHT22;6125;59.628;17.852;2023-06-19T05:44:11;19.00;99.90
12123;DHT22;6125;59.628;17.852;2023-06-19T05:46:40;18.90;99.90
12123;DHT22;6125;59.628;17.852;2023-06-19T05:49:07;18.90;99.90
12123;DHT22;6125;59.628;17.852;2023-06-19T05:51:34;18.90;99.90
12123;DHT22;6125;59.628;17.852;2023-06-19T05:54:02;18.90;99.90
12123;DHT22;6125;59.628;17.852;2023-06-19T05:56:31;18.80;99.90
12123;DHT22;6125;59.628;17.852;2023-06-19T05:58:59;18.80;99.90
12123;DHT22;6125;59.628;17.852;2023-06-19T06:01:26;18.80;99.90
12123;DHT22;6125;59.628;17.852;2023-06-19T06:03:54;18.80;99.90
12123;DHT22;6125;59.628;17.852;2023-06-19T06:06:23;18.80;99.90
12123;DHT22;6125;59.628;17.852;2023-06-19T06:08:51;18.90;99.90
12123;DHT22;6125;59.628;17.852;2023-06-19T06:11:18;18.80;99.90
12123;DHT22;6125;59.628;17.852;2023-06-19T06:13:46;18.90;99.90
12123;DHT22;6125;59.628;17.852;2023-06-19T06:16:13;18.90;99.90
12123;DHT22;6125;59.628;17.852;2023-06-19T06:18:41;18.90;99.90
12123;DHT22;6125;59.628;17.852;2023-06-19T06:21:08;19.00;99.90
12123;DHT22;6125;59.628;17.852;2023-06-19T06:23:35;19.10;99.90
12123;DHT22;6125;59.628;17.852;2023-06-19T06:26:02;19.20;99.90
12123;DHT22;6125;59.628;17.852;2023-06-19T06:28:35;19.30;99.90
12123;DHT22;6125;59.628;17.852;2023-06-19T06:31:05;19.30;99.90
12123;DHT22;6125;59.628;17.852;2023-06-19T06:33:32;19.30;99.90
12123;DHT22;6125;59.628;17.852;2023-06-19T06:35:59;19.30;99.90
12123;DHT22;6125;59.628;17.852;2023-06-19T06:38:26;19.40;99.90
12123;DHT22;6125;59.628;17.852;2023-06-19T06:40:53;19.50;99.90
12123;DHT22;6125;59.628;17.852;2023-06-19T06:43:20;19.60;99.90
12123;DHT22;6125;59.628;17.852;2023-06-19T06:45:48;19.70;99.90
12123;DHT22;6125;59.628;17.852;2023-06-19T06:48:16;19.80;99.90
12123;DHT22;6125;59.628;17.852;2023-06-19T06:50:43;19.90;99.90
12123;DHT22;6125;59.628;17.852;2023-06-19T06:53:11;19.90;99.90
12123;DHT22;6125;59.628;17.852;2023-06-19T06:55:38;19.80;99.90
12123;DHT22;6125;59.628;17.852;2023-06-19T06:58:05;19.80;99.90
12123;DHT22;6125;59.628;17.852;2023-06-19T07:00:32;19.80;99.90
12123;DHT22;6125;59.628;17.852;2023-06-19T07:03:00;19.70;99.90
12123;DHT22;6125;59.628;17.852;2023-06-19T07:05:28;19.80;99.90
12123;DHT22;6125;59.628;17.852;2023-06-19T07:07:55;20.00;99.90
12123;DHT22;6125;59.628;17.852;2023-06-19T07:10:22;20.30;99.90
12123;DHT22;6125;59.628;17.852;2023-06-19T07:12:49;20.70;99.90
12123;DHT22;6125;59.628;17.852;2023-06-19T07:15:17;21.00;99.90
12123;DHT22;6125;59.628;17.852;2023-06-19T07:17:44;21.30;99.90
12123;DHT22;6125;59.628;17.852;2023-06-19T07:20:12;21.40;99.90
12123;DHT22;6125;59.628;17.852;2023-06-19T07:22:40;21.60;99.90
12123;DHT22;6125;59.628;17.852;2023-06-19T07:25:09;21.70;99.90
12123;DHT22;6125;59.628;17.852;2023-06-19T07:27:37;21.80;99.90
12123;DHT22;6125;59.628;17.852;2023-06-19T07:30:06;21.90;99.90
12123;DHT22;6125;59.628;17.852;2023-06-19T07:32:33;22.00;99.90
12123;DHT22;6125;59.628;17.852;2023-06-19T07:35:00;22.20;99.90
12123;DHT22;6125;59.628;17.852;2023-06-19T07:37:27;22.50;99.90
12123;DHT22;6125;59.628;17.852;2023-06-19T07:39:56;22.60;99.90
12123;DHT22;6125;59.628;17.852;2023-06-19T07:42:23;22.70;99.90
12123;DHT22;6125;59.628;17.852;2023-06-19T07:44:50;22.80;99.90
12123;DHT22;6125;59.628;17.852;2023-06-19T07:47:17;23.00;99.90
12123;DHT22;6125;59.628;17.852;2023-06-19T07:49:46;23.10;99.90
12123;DHT22;6125;59.628;17.852;2023-06-19T07:52:13;23.10;99.90
12123;DHT22;6125;59.628;17.852;2023-06-19T07:54:54;23.00;99.90
12123;DHT22;6125;59.628;17.852;2023-06-19T07:57:24;22.90;99.90
12123;DHT22;6125;59.628;17.852;2023-06-19T07:59:52;22.90;99.90
12123;DHT22;6125;59.628;17.852;2023-06-19T08:02:19;22.60;99.90
12123;DHT22;6125;59.628;17.852;2023-06-19T08:04:47;22.60;99.90
12123;DHT22;6125;59.628;17.852;2023-06-19T08:07:14;22.80;99.90
12123;DHT22;6125;59.628;17.852;2023-06-19T08:09:41;22.90;99.90
12123;DHT22;6125;59.628;17.852;2023-06-19T08:12:08;23.10;99.90
12123;DHT22;6125;59.628;17.852;2023-06-19T08:14:36;23.20;99.90
12123;DHT22;6125;59.628;17.852;2023-06-19T08:17:04;23.30;99.90
12123;DHT22;6125;59.628;17.852;2023-06-19T08:19:31;23.50;99.90
12123;DHT22;6125;59.628;17.852;2023-06-19T08:21:58;23.60;99.90
12123;DHT22;6125;59.628;17.852;2023-06-19T08:24:25;23.50;99.90
12123;DHT22;6125;59.628;17.852;2023-06-19T08:26:52;23.40;99.90
12123;DHT22;6125;59.628;17.852;2023-06-19T08:29:19;23.50;99.90
12123;DHT22;6125;59.628;17.852;2023-06-19T08:31:48;23.40;99.90
12123;DHT22;6125;59.628;17.852;2023-06-19T08:34:15;23.50;99.90
12123;DHT22;6125;59.628;17.852;2023-06-19T08:36:42;23.80;99.90
12123;DHT22;6125;59.628;17.852;2023-06-19T08:39:09;23.90;99.90
12123;DHT22;6125;59.628;17.852;2023-06-19T08:41:36;23.90;99.90
12123;DHT22;6125;59.628;17.852;2023-06-19T08:44:05;23.90;99.90
12123;DHT22;6125;59.628;17.852;2023-06-19T08:46:32;23.90;99.90
12123;DHT22;6125;59.628;17.852;2023-06-19T08:49:01;24.00;99.90
12123;DHT22;6125;59.628;17.852;2023-06-19T08:51:28;24.20;99.90
12123;DHT22;6125;59.628;17.852;2023-06-19T08:53:59;24.30;99.90
12123;DHT22;6125;59.628;17.852;2023-06-19T08:56:27;24.50;99.90
12123;DHT22;6125;59.628;17.852;2023-06-19T08:58:54;24.80;99.90
12123;DHT22;6125;59.628;17.852;2023-06-19T09:01:21;24.70;99.90
12123;DHT22;6125;59.628;17.852;2023-06-19T09:03:53;24.30;99.90
12123;DHT22;6125;59.628;17.852;2023-06-19T09:06:22;24.20;99.90
12123;DHT22;6125;59.628;17.852;2023-06-19T09:08:58;24.00;99.90
12123;DHT22;6125;59.628;17.852;2023-06-19T09:11:25;24.00;99.90
12123;DHT22;6125;59.628;17.852;2023-06-19T09:13:56;24.20;99.90
12123;DHT22;6125;59.628;17.852;2023-06-19T09:16:24;24.40;99.90
12123;DHT22;6125;59.628;17.852;2023-06-19T09:19:02;24.50;99.90
12123;DHT22;6125;59.628;17.852;2023-06-19T09:21:31;24.70;99.90
12123;DHT22;6125;59.628;17.852;2023-06-19T09:24:03;24.70;99.90
12123;DHT22;6125;59.628;17.852;2023-06-19T09:26:30;24.80;99.90
12123;DHT22;6125;59.628;17.852;2023-06-19T09:28:57;24.60;99.90
12123;DHT22;6125;59.628;17.852;2023-06-19T09:31:32;24.50;99.90
12123;DHT22;6125;59.628;17.852;2023-06-19T09:33:59;24.60;99.90
12123;DHT22;6125;59.628;17.852;2023-06-19T09:36:27;24.70;99.90
12123;DHT22;6125;59.628;17.852;2023-06-19T09:38:56;24.80;99.90
12123;DHT22;6125;59.628;17.852;2023-06-19T09:41:24;24.90;99.90
12123;DHT22;6125;59.628;17.852;2023-06-19T09:43:55;25.00;99.90
12123;DHT22;6125;59.628;17.852;2023-06-19T09:46:26;25.10;99.90
12123;DHT22;6125;59.628;17.852;2023-06-19T09:49:00;24.80;99.90
12123;DHT22;6125;59.628;17.852;2023-06-19T09:51:31;24.80;99.90
12123;DHT22;6125;59.628;17.852;2023-06-19T09:54:01;24.90;99.90
12123;DHT22;6125;59.628;17.852;2023-06-19T09:56:30;25.10;99.90
12123;DHT22;6125;59.628;17.852;2023-06-19T09:58:58;24.60;99.90
12123;DHT22;6125;59.628;17.852;2023-06-19T10:01:27;24.50;99.90
12123;DHT22;6125;59.628;17.852;2023-06-19T10:04:05;24.70;99.90
12123;DHT22;6125;59.628;17.852;2023-06-19T10:06:33;24.80;99.90
12123;DHT22;6125;59.628;17.852;2023-06-19T10:09:08;25.00;99.90
12123;DHT22;6125;59.628;17.852;2023-06-19T10:11:53;25.30;99.90
12123;DHT22;6125;59.628;17.852;2023-06-19T10:14:21;25.50;99.90
12123;DHT22;6125;59.628;17.852;2023-06-19T10:16:50;25.40;99.90
12123;DHT22;6125;59.628;17.852;2023-06-19T10:19:20;25.30;99.90
12123;DHT22;6125;59.628;17.852;2023-06-19T10:21:48;25.30;99.90
12123;DHT22;6125;59.628;17.852;2023-06-19T10:24:18;25.30;99.90
12123;DHT22;6125;59.628;17.852;2023-06-19T10:26:57;25.10;99.90
12123;DHT22;6125;59.628;17.852;2023-06-19T10:29:25;25.00;99.90
12123;DHT22;6125;59.628;17.852;2023-06-19T10:31:53;24.80;99.90
12123;DHT22;6125;59.628;17.852;2023-06-19T10:34:22;24.90;99.90
12123;DHT22;6125;59.628;17.852;2023-06-19T10:36:59;24.90;99.90
12123;DHT22;6125;59.628;17.852;2023-06-19T10:39:27;24.80;99.90
12123;DHT22;6125;59.628;17.852;2023-06-19T10:41:54;24.70;99.90
12123;DHT22;6125;59.628;17.852;2023-06-19T10:44:23;24.70;99.90
12123;DHT22;6125;59.628;17.852;2023-06-19T10:46:52;24.50;99.90
12123;DHT22;6125;59.628;17.852;2023-06-19T10:49:21;24.40;99.90
12123;DHT22;6125;59.628;17.852;2023-06-19T10:51:48;24.30;99.90
12123;DHT22;6125;59.628;17.852;2023-06-19T10:54:16;24.30;99.90
12123;DHT22;6125;59.628;17.852;2023-06-19T10:56:44;24.30;99.90
12123;DHT22;6125;59.628;17.852;2023-06-19T10:59:14;24.30;99.90
12123;DHT22;6125;59.628;17.852;2023-06-19T11:01:43;24.20;99.90
12123;DHT22;6125;59.628;17.852;2023-06-19T11:04:12;24.30;99.90
12123;DHT22;6125;59.628;17.852;2023-06-19T11:06:41;24.20;99.90
12123;DHT22;6125;59.628;17.852;2023-06-19T11:09:09;24.20;99.90
12123;DHT22;6125;59.628;17.852;2023-06-19T11:11:38;24.10;99.90
12123;DHT22;6125;59.628;17.852;2023-06-19T11:14:07;24.00;99.90
12123;DHT22;6125;59.628;17.852;2023-06-19T11:16:38;23.90;99.90
12123;DHT22;6125;59.628;17.852;2023-06-19T11:19:06;23.80;99.90
12123;DHT22;6125;59.628;17.852;2023-06-19T11:21:35;23.60;99.90
12123;DHT22;6125;59.628;17.852;2023-06-19T11:24:04;23.40;99.90
12123;DHT22;6125;59.628;17.852;2023-06-19T11:26:35;23.30;99.90
12123;DHT22;6125;59.628;17.852;2023-06-19T11:29:14;23.20;99.90
12123;DHT22;6125;59.628;17.852;2023-06-19T11:31:41;23.00;99.90
12123;DHT22;6125;59.628;17.852;2023-06-19T11:34:08;22.90;99.90
12123;DHT22;6125;59.628;17.852;2023-06-19T11:36:37;22.90;99.90
12123;DHT22;6125;59.628;17.852;2023-06-19T11:39:08;22.80;99.90
12123;DHT22;6125;59.628;17.852;2023-06-19T11:41:36;22.70;99.90
12123;DHT22;6125;59.628;17.852;2023-06-19T11:44:04;22.60;99.90
12123;DHT22;6125;59.628;17.852;2023-06-19T11:46:33;22.50;99.90
12123;DHT22;6125;59.628;17.852;2023-06-19T11:49:11;22.60;99.90
12123;DHT22;6125;59.628;17.852;2023-06-19T11:51:39;22.50;99.90
12123;DHT22;6125;59.628;17.852;2023-06-19T11:54:14;22.60;99.90
12123;DHT22;6125;59.628;17.852;2023-06-19T11:56:41;22.50;99.90
12123;DHT22;6125;59.628;17.852;2023-06-19T11:59:08;22.50;99.90
12123;DHT22;6125;59.628;17.852;2023-06-19T12:01:37;22.50;99.90
12123;DHT22;6125;59.628;17.852;2023-06-19T12:04:04;22.40;99.90
12123;DHT22;6125;59.628;17.852;2023-06-19T12:06:32;22.30;99.90
12123;DHT22;6125;59.628;17.852;2023-06-19T12:09:01;22.20;99.90
12123;DHT22;6125;59.628;17.852;2023-06-19T12:11:28;22.10;99.90
12123;DHT22;6125;59.628;17.852;2023-06-19T12:13:55;22.00;99.90
12123;DHT22;6125;59.628;17.852;2023-06-19T12:16:23;21.90;99.90
12123;DHT22;6125;59.628;17.852;2023-06-19T12:18:53;21.70;99.90
12123;DHT22;6125;59.628;17.852;2023-06-19T12:21:20;21.70;99.90
12123;DHT22;6125;59.628;17.852;2023-06-19T12:23:47;21.70;99.90
12123;DHT22;6125;59.628;17.852;2023-06-19T12:26:14;21.80;99.90
12123;DHT22;6125;59.628;17.852;2023-06-19T12:28:42;21.80;99.90
12123;DHT22;6125;59.628;17.852;2023-06-19T12:31:09;21.70;99.90
12123;DHT22;6125;59.628;17.852;2023-06-19T12:33:36;21.60;99.90
12123;DHT22;6125;59.628;17.852;2023-06-19T12:36:10;21.70;99.90
12123;DHT22;6125;59.628;17.852;2023-06-19T12:38:39;21.90;99.90
12123;DHT22;6125;59.628;17.852;2023-06-19T12:41:06;22.30;99.90
12123;DHT22;6125;59.628;17.852;2023-06-19T12:43:34;22.70;99.90
12123;DHT22;6125;59.628;17.852;2023-06-19T12:46:01;23.20;99.90
12123;DHT22;6125;59.628;17.852;2023-06-19T12:48:28;23.70;99.90
12123;DHT22;6125;59.628;17.852;2023-06-19T12:50:55;24.10;99.90
12123;DHT22;6125;59.628;17.852;2023-06-19T12:53:23;24.40;99.90
12123;DHT22;6125;59.628;17.852;2023-06-19T12:55:55;24.60;99.90
12123;DHT22;6125;59.628;17.852;2023-06-19T12:58:22;24.90;99.90
12123;DHT22;6125;59.628;17.852;2023-06-19T13:00:56;25.20;99.90
12123;DHT22;6125;59.628;17.852;2023-06-19T13:03:23;25.50;99.90
12123;DHT22;6125;59.628;17.852;2023-06-19T13:05:50;25.80;99.90
12123;DHT22;6125;59.628;17.852;2023-06-19T13:08:17;26.10;99.90
12123;DHT22;6125;59.628;17.852;2023-06-19T13:10:46;26.20;99.90
12123;DHT22;6125;59.628;17.852;2023-06-19T13:13:13;26.40;99.90
12123;DHT22;6125;59.628;17.852;2023-06-19T13:15:40;26.40;99.90
12123;DHT22;6125;59.628;17.852;2023-06-19T13:18:07;26.30;99.90
12123;DHT22;6125;59.628;17.852;2023-06-19T13:20:34;26.10;99.90
12123;DHT22;6125;59.628;17.852;2023-06-19T13:23:02;26.10;99.90
12123;DHT22;6125;59.628;17.852;2023-06-19T13:25:29;26.10;99.90
12123;DHT22;6125;59.628;17.852;2023-06-19T13:27:59;26.30;99.90
12123;DHT22;6125;59.628;17.852;2023-06-19T13:30:26;26.70;99.90
12123;DHT22;6125;59.628;17.852;2023-06-19T13:32:54;27.00;99.90
12123;DHT22;6125;59.628;17.852;2023-06-19T13:35:21;27.30;99.90
12123;DHT22;6125;59.628;17.852;2023-06-19T13:37:48;27.50;99.90
12123;DHT22;6125;59.628;17.852;2023-06-19T13:40:15;27.70;99.90
12123;DHT22;6125;59.628;17.852;2023-06-19T13:42:42;28.00;99.90
12123;DHT22;6125;59.628;17.852;2023-06-19T13:45:11;28.10;99.90
12123;DHT22;6125;59.628;17.852;2023-06-19T13:47:38;28.20;99.90
12123;DHT22;6125;59.628;17.852;2023-06-19T13:50:08;28.10;99.90
12123;DHT22;6125;59.628;17.852;2023-06-19T13:52:35;28.10;99.90
12123;DHT22;6125;59.628;17.852;2023-06-19T13:55:03;28.10;99.90
12123;DHT22;6125;59.628;17.852;2023-06-19T13:57:30;28.20;99.90
12123;DHT22;6125;59.628;17.852;2023-06-19T13:59:57;28.00;99.90
12123;DHT22;6125;59.628;17.852;2023-06-19T14:02:25;28.00;99.90
12123;DHT22;6125;59.628;17.852;2023-06-19T14:04:52;28.20;99.90
12123;DHT22;6125;59.628;17.852;2023-06-19T14:07:20;28.60;99.90
12123;DHT22;6125;59.628;17.852;2023-06-19T14:09:47;29.00;99.90
12123;DHT22;6125;59.628;17.852;2023-06-19T14:12:14;29.20;99.90
12123;DHT22;6125;59.628;17.852;2023-06-19T14:14:41;29.20;99.90
12123;DHT22;6125;59.628;17.852;2023-06-19T14:17:08;29.10;99.90
12123;DHT22;6125;59.628;17.852;2023-06-19T14:19:37;29.20;99.90
12123;DHT22;6125;59.628;17.852;2023-06-19T14:22:04;29.30;99.90
12123;DHT22;6125;59.628;17.852;2023-06-19T14:24:31;29.60;99.90
12123;DHT22;6125;59.628;17.852;2023-06-19T14:26:58;29.90;99.90
12123;DHT22;6125;59.628;17.852;2023-06-19T14:29:25;30.10;99.90
12123;DHT22;6125;59.628;17.852;2023-06-19T14:31:53;30.10;99.90
12123;DHT22;6125;59.628;17.852;2023-06-19T14:34:20;30.10;99.90
12123;DHT22;6125;59.628;17.852;2023-06-19T14:36:48;30.00;99.90
12123;DHT22;6125;59.628;17.852;2023-06-19T14:39:15;29.90;99.90
12123;DHT22;6125;59.628;17.852;2023-06-19T14:41:42;29.60;99.90
12123;DHT22;6125;59.628;17.852;2023-06-19T14:44:09;29.50;99.90
12123;DHT22;6125;59.628;17.852;2023-06-19T14:46:36;29.30;99.90
12123;DHT22;6125;59.628;17.852;2023-06-19T14:49:05;29.00;99.90
12123;DHT22;6125;59.628;17.852;2023-06-19T14:51:32;28.80;99.90
12123;DHT22;6125;59.628;17.852;2023-06-19T14:54:01;28.40;99.90
12123;DHT22;6125;59.628;17.852;2023-06-19T14:56:28;28.20;99.90
12123;DHT22;6125;59.628;17.852;2023-06-19T14:58:55;27.80;99.90
12123;DHT22;6125;59.628;17.852;2023-06-19T15:01:23;27.60;99.90
12123;DHT22;6125;59.628;17.852;2023-06-19T15:03:50;27.50;99.90
12123;DHT22;6125;59.628;17.852;2023-06-19T15:06:17;27.60;99.90
12123;DHT22;6125;59.628;17.852;2023-06-19T15:08:44;27.80;99.90
12123;DHT22;6125;59.628;17.852;2023-06-19T15:11:12;28.20;99.90
12123;DHT22;6125;59.628;17.852;2023-06-19T15:13:39;28.60;99.90
12123;DHT22;6125;59.628;17.852;2023-06-19T15:16:06;28.80;99.90
12123;DHT22;6125;59.628;17.852;2023-06-19T15:18:33;29.10;99.90
12123;DHT22;6125;59.628;17.852;2023-06-19T15:21:00;29.20;99.90
12123;DHT22;6125;59.628;17.852;2023-06-19T15:23:27;29.30;99.90
12123;DHT22;6125;59.628;17.852;2023-06-19T15:25:54;29.60;99.90
12123;DHT22;6125;59.628;17.852;2023-06-19T15:28:23;30.00;99.90
12123;DHT22;6125;59.628;17.852;2023-06-19T15:30:50;30.20;99.90
12123;DHT22;6125;59.628;17.852;2023-06-19T15:33:17;30.30;99.90
12123;DHT22;6125;59.628;17.852;2023-06-19T15:35:44;30.20;99.90